Time;durP1;ratioP1;P1;durP2;ratioP2;P2;SDS_P1;SDS_P2;PMS_P1;PMS_P2;Temp;Humidity;BMP_temperature;BMP_pressure;BME280_temperature;BME280_humidity;BME280_pressure;Samples;Min_cycle;Max_cycle;Signal;HPM_P1;HPM_P2
2022/03/09 00:01:46;;;;;;;5.43;1.70;;;;;;;;;;5065363;28;20059;-67
2022/03/09 00:04:12;;;;;;;3.60;1.40;;;;;;;;;;5065676;28;20083;-67
2022/03/09 00:06:38;;;;;;;5.38;1.77;;;;;;;;;;5049935;28;20169;-67
2022/03/09 00:09:04;;;;;;;2.75;1.30;;;;;;;;;;5064803;28;20060;-67
2022/03/09 00:11:30;;;;;;;3.95;1.50;;;;;;;;;;5049925;28;20097;-67
2022/03/09 00:13:56;;;;;;;5.72;1.60;;;;;;;;;;5065643;28;20079;-67
2022/03/09 00:16:22;;;;;;;4.28;1.58;;;;;;;;;;5066655;28;20068;-67
2022/03/09 00:18:48;;;;;;;3.90;1.70;;;;;;;;;;5065220;28;20049;-67
2022/03/09 00:21:15;;;;;;;3.85;1.48;;;;;;;;;;5066174;28;20052;-67
2022/03/09 00:23:41;;;;;;;3.72;1.48;;;;;;;;;;5064709;28;20564;-68
2022/03/09 00:26:07;;;;;;;3.47;1.38;;;;;;;;;;5066232;28;20044;-68
2022/03/09 00:28:33;;;;;;;3.97;1.45;;;;;;;;;;5065145;28;20047;-67
2022/03/09 00:30:59;;;;;;;4.07;1.50;;;;;;;;;;5065912;28;20028;-68
2022/03/09 00:33:25;;;;;;;4.68;1.77;;;;;;;;;;5065076;28;20045;-68
2022/03/09 00:35:51;;;;;;;4.22;1.80;;;;;;;;;;5065761;28;20685;-67
2022/03/09 00:38:17;;;;;;;3.92;1.48;;;;;;;;;;5057288;28;20037;-68
2022/03/09 00:40:47;;;;;;;3.97;1.52;;;;;;;;;;5045627;28;20051;-67
2022/03/09 00:43:13;;;;;;;5.75;1.67;;;;;;;;;;5054339;28;20055;-67
2022/03/09 00:45:39;;;;;;;3.85;1.40;;;;;;;;;;5065319;28;20044;-67
2022/03/09 00:48:05;;;;;;;3.80;1.52;;;;;;;;;;5064207;28;20051;-67
2022/03/09 00:50:31;;;;;;;5.30;1.73;;;;;;;;;;5049132;28;20101;-67
2022/03/09 00:52:57;;;;;;;3.97;1.50;;;;;;;;;;5065204;28;20045;-67
2022/03/09 00:55:23;;;;;;;3.90;1.60;;;;;;;;;;5065853;28;20092;-67
2022/03/09 00:57:49;;;;;;;4.07;1.52;;;;;;;;;;5064354;28;20040;-67
2022/03/09 01:00:15;;;;;;;4.75;1.95;;;;;;;;;;5065332;28;20124;-67
2022/03/09 01:02:42;;;;;;;4.90;1.65;;;;;;;;;;5063390;28;20072;-67
2022/03/09 01:05:08;;;;;;;4.30;1.60;;;;;;;;;;5065216;28;20091;-68
2022/03/09 01:07:34;;;;;;;3.70;1.45;;;;;;;;;;5063485;28;20044;-67
2022/03/09 01:10:00;;;;;;;3.60;1.55;;;;;;;;;;5065420;28;20144;-66
2022/03/09 01:12:26;;;;;;;4.65;1.73;;;;;;;;;;5063124;28;20040;-66
2022/03/09 01:14:52;;;;;;;5.28;1.83;;;;;;;;;;5044855;28;20044;-67
2022/03/09 01:17:18;;;;;;;3.42;1.50;;;;;;;;;;5046034;28;20577;-67
2022/03/09 01:19:44;;;;;;;3.90;1.50;;;;;;;;;;5065246;28;20511;-67
2022/03/09 01:22:10;;;;;;;4.85;1.90;;;;;;;;;;5066166;28;20033;-68
2022/03/09 01:24:36;;;;;;;3.45;1.40;;;;;;;;;;5044872;28;20710;-67
2022/03/09 01:27:02;;;;;;;4.32;1.73;;;;;;;;;;5045487;28;20130;-67
2022/03/09 01:29:28;;;;;;;6.00;2.20;;;;;;;;;;5063508;28;20083;-68
2022/03/09 01:31:54;;;;;;;4.72;1.90;;;;;;;;;;5048152;28;20076;-67
2022/03/09 01:34:20;;;;;;;4.10;1.80;;;;;;;;;;5063730;28;20044;-68
2022/03/09 01:36:46;;;;;;;4.07;1.60;;;;;;;;;;5064949;28;20649;-67
2022/03/09 01:39:12;;;;;;;4.15;1.67;;;;;;;;;;5063475;28;20037;-67
2022/03/09 01:41:38;;;;;;;3.90;1.52;;;;;;;;;;5065069;28;20106;-66
2022/03/09 01:44:09;;;;;;;4.07;1.70;;;;;;;;;;5048971;28;20045;-67
2022/03/09 01:46:35;;;;;;;4.18;1.65;;;;;;;;;;5044498;28;20048;-67
2022/03/09 01:49:01;;;;;;;4.45;1.90;;;;;;;;;;5058813;28;20040;-67
2022/03/09 01:51:27;;;;;;;4.65;1.63;;;;;;;;;;5048435;28;20772;-67
2022/03/09 01:53:53;;;;;;;4.25;1.98;;;;;;;;;;5049897;28;20099;-67
2022/03/09 01:56:19;;;;;;;6.05;2.08;;;;;;;;;;5044767;28;20124;-68
2022/03/09 01:58:45;;;;;;;4.38;1.88;;;;;;;;;;5056714;28;20210;-67
2022/03/09 02:01:11;;;;;;;4.45;1.77;;;;;;;;;;5064137;28;20522;-67
2022/03/09 02:03:37;;;;;;;4.25;1.73;;;;;;;;;;5064126;28;20131;-67
2022/03/09 02:06:03;;;;;;;5.38;1.80;;;;;;;;;;5068865;28;20048;-67
2022/03/09 02:11:15;;;;;;;4.57;1.85;;;;;;;;;;5067977;28;20053;-67
2022/03/09 02:13:41;;;;;;;5.47;1.98;;;;;;;;;;5068955;28;20703;-67
2022/03/09 02:16:07;;;;;;;4.22;1.83;;;;;;;;;;5068679;28;20067;-67
2022/03/09 02:18:33;;;;;;;4.35;2.10;;;;;;;;;;5051215;28;20055;-67
2022/03/09 02:21:02;;;;;;;5.20;2.03;;;;;;;;;;5068793;28;20036;-67
2022/03/09 02:23:28;;;;;;;4.30;1.85;;;;;;;;;;5067580;28;20140;-67
2022/03/09 02:25:54;;;;;;;4.65;1.95;;;;;;;;;;5068739;28;20071;-67
2022/03/09 02:28:20;;;;;;;5.32;2.22;;;;;;;;;;5050498;28;20524;-67
2022/03/09 02:30:46;;;;;;;6.07;1.90;;;;;;;;;;5068661;28;20044;-67
2022/03/09 02:33:12;;;;;;;4.57;2.10;;;;;;;;;;5068347;28;20036;-67
2022/03/09 02:35:38;;;;;;;6.07;2.10;;;;;;;;;;5068261;28;20040;-67
2022/03/09 02:38:04;;;;;;;5.82;2.58;;;;;;;;;;5067003;28;20044;-67
2022/03/09 02:40:30;;;;;;;5.50;2.53;;;;;;;;;;5051580;28;20514;-67
2022/03/09 02:42:56;;;;;;;7.55;2.47;;;;;;;;;;5066812;28;20045;-67
2022/03/09 02:45:21;;;;;;;5.65;2.35;;;;;;;;;;5051406;28;20102;-67
2022/03/09 02:47:47;;;;;;;5.70;2.70;;;;;;;;;;5068172;28;20028;-67
2022/03/09 02:50:15;;;;;;;4.93;1.98;;;;;;;;;;5067705;28;20560;-67
2022/03/09 02:52:42;;;;;;;5.30;2.20;;;;;;;;;;5067678;28;20592;-67
2022/03/09 02:55:09;;;;;;;5.93;2.50;;;;;;;;;;5068250;28;20047;-67
2022/03/09 02:57:35;;;;;;;5.97;2.50;;;;;;;;;;5063752;28;20032;-67
2022/03/09 03:00:01;;;;;;;5.28;2.50;;;;;;;;;;5048127;28;20166;-67
2022/03/09 03:02:27;;;;;;;5.68;2.58;;;;;;;;;;5031103;28;20045;-67
2022/03/09 03:04:53;;;;;;;5.90;2.53;;;;;;;;;;5047702;28;20051;-67
2022/03/09 03:07:19;;;;;;;5.70;2.63;;;;;;;;;;5048378;28;20754;-67
2022/03/09 03:09:45;;;;;;;5.30;2.47;;;;;;;;;;5067608;28;20048;-67
2022/03/09 03:12:11;;;;;;;5.53;2.30;;;;;;;;;;5066952;28;20623;-67
2022/03/09 03:14:37;;;;;;;5.35;2.63;;;;;;;;;;5063785;28;20098;-67
2022/03/09 03:17:03;;;;;;;5.85;2.50;;;;;;;;;;5047715;28;20132;-67
2022/03/09 03:19:29;;;;;;;4.90;2.20;;;;;;;;;;5062984;28;20046;-67
2022/03/09 03:21:55;;;;;;;5.55;2.42;;;;;;;;;;5044725;28;20515;-67
2022/03/09 03:24:21;;;;;;;5.25;2.47;;;;;;;;;;5042121;28;20098;-67
2022/03/09 03:26:47;;;;;;;5.05;2.45;;;;;;;;;;5047796;28;20041;-67
2022/03/09 03:29:13;;;;;;;6.15;2.13;;;;;;;;;;5064149;28;20117;-67
2022/03/09 03:31:39;;;;;;;5.75;2.50;;;;;;;;;;5067243;28;20537;-67
2022/03/09 03:34:05;;;;;;;5.47;2.60;;;;;;;;;;5049819;28;20110;-67
2022/03/09 03:36:31;;;;;;;5.78;2.70;;;;;;;;;;5067466;28;20044;-67
2022/03/09 03:38:57;;;;;;;6.57;2.75;;;;;;;;;;5066688;28;20048;-67
2022/03/09 03:41:23;;;;;;;5.18;2.38;;;;;;;;;;5067287;28;20054;-67
2022/03/09 03:43:49;;;;;;;7.47;2.72;;;;;;;;;;5066434;28;20044;-67
2022/03/09 03:46:15;;;;;;;5.55;2.50;;;;;;;;;;5053197;28;20037;-67
2022/03/09 03:48:41;;;;;;;6.63;3.05;;;;;;;;;;5059087;28;20091;-67
2022/03/09 03:51:07;;;;;;;4.90;2.35;;;;;;;;;;5067538;28;20473;-67
2022/03/09 03:53:33;;;;;;;5.50;2.60;;;;;;;;;;5066482;28;20597;-67
2022/03/09 03:55:59;;;;;;;5.05;2.40;;;;;;;;;;5066466;28;20041;-66
2022/03/09 03:58:25;;;;;;;5.63;2.50;;;;;;;;;;5066611;28;20664;-66
2022/03/09 04:00:51;;;;;;;5.18;2.75;;;;;;;;;;5067307;28;20051;-67
2022/03/09 04:03:17;;;;;;;6.38;2.65;;;;;;;;;;5065605;28;20041;-67
2022/03/09 04:05:43;;;;;;;5.70;2.67;;;;;;;;;;5066934;28;20083;-67
2022/03/09 04:08:09;;;;;;;6.05;2.78;;;;;;;;;;5065728;28;20619;-67
2022/03/09 04:10:35;;;;;;;5.70;2.85;;;;;;;;;;5067145;28;20055;-67
2022/03/09 04:13:04;;;;;;;6.18;2.92;;;;;;;;;;5066757;28;20029;-67
2022/03/09 04:15:31;;;;;;;6.40;2.90;;;;;;;;;;5050484;28;20048;-67
2022/03/09 04:17:57;;;;;;;5.10;2.55;;;;;;;;;;5064892;28;20041;-67
2022/03/09 04:20:23;;;;;;;6.25;2.97;;;;;;;;;;5066563;28;20094;-67
2022/03/09 04:22:49;;;;;;;6.65;2.65;;;;;;;;;;5049438;28;20041;-66
2022/03/09 04:25:15;;;;;;;5.40;2.70;;;;;;;;;;5067272;28;20068;-67
2022/03/09 04:27:41;;;;;;;6.60;3.08;;;;;;;;;;5062129;28;20032;-67
2022/03/09 04:30:08;;;;;;;5.50;2.58;;;;;;;;;;5046504;28;20037;-67
2022/03/09 04:32:34;;;;;;;5.22;2.60;;;;;;;;;;5047935;28;20699;-67
2022/03/09 04:35:00;;;;;;;5.70;2.80;;;;;;;;;;5049618;28;20051;-67
2022/03/09 04:37:30;;;;;;;7.80;2.80;;;;;;;;;;5064804;28;20044;-67
2022/03/09 04:39:56;;;;;;;5.95;2.60;;;;;;;;;;5065632;28;20055;-67
2022/03/09 04:42:22;;;;;;;5.40;2.92;;;;;;;;;;5063813;28;20040;-67
2022/03/09 04:44:48;;;;;;;6.47;2.83;;;;;;;;;;5045448;28;20044;-67
2022/03/09 04:47:14;;;;;;;6.88;2.72;;;;;;;;;;5046616;28;20652;-67
2022/03/09 04:49:40;;;;;;;5.68;2.97;;;;;;;;;;5066340;28;20071;-67
2022/03/09 04:52:06;;;;;;;7.63;3.00;;;;;;;;;;5066381;28;20040;-67
2022/03/09 04:54:32;;;;;;;5.47;2.85;;;;;;;;;;5046713;28;20045;-67
2022/03/09 04:56:58;;;;;;;6.35;3.03;;;;;;;;;;5046161;28;20631;-67
2022/03/09 04:59:24;;;;;;;5.95;2.72;;;;;;;;;;5063412;28;20063;-67
2022/03/09 05:01:50;;;;;;;6.22;2.90;;;;;;;;;;5065631;28;20613;-67
2022/03/09 05:04:16;;;;;;;6.55;3.25;;;;;;;;;;5064622;28;20048;-67
2022/03/09 05:06:42;;;;;;;6.93;2.90;;;;;;;;;;5067354;28;20044;-67
2022/03/09 05:09:08;;;;;;;6.47;3.13;;;;;;;;;;5050906;28;20052;-67
2022/03/09 05:11:34;;;;;;;5.20;2.75;;;;;;;;;;5045951;28;20183;-67
2022/03/09 05:14:00;;;;;;;5.85;2.88;;;;;;;;;;5059609;28;20127;-67
2022/03/09 05:16:26;;;;;;;5.80;3.03;;;;;;;;;;5065706;28;20052;-67
2022/03/09 05:18:52;;;;;;;5.50;2.72;;;;;;;;;;5064806;28;20125;-67
2022/03/09 05:21:18;;;;;;;6.40;3.13;;;;;;;;;;5049314;28;20059;-67
2022/03/09 05:23:44;;;;;;;6.80;3.40;;;;;;;;;;5064639;28;20057;-67
2022/03/09 05:26:10;;;;;;;6.85;2.90;;;;;;;;;;5065305;28;20075;-67
2022/03/09 05:28:36;;;;;;;6.15;3.13;;;;;;;;;;5065057;28;20036;-66
2022/03/09 05:31:02;;;;;;;6.22;3.15;;;;;;;;;;5048233;28;20386;-67
2022/03/09 05:33:28;;;;;;;7.15;3.03;;;;;;;;;;5064070;28;20040;-67
2022/03/09 05:35:54;;;;;;;6.45;3.25;;;;;;;;;;5065384;28;20044;-67
2022/03/09 05:38:20;;;;;;;6.35;2.95;;;;;;;;;;5054245;28;20124;-67
2022/03/09 05:40:46;;;;;;;5.65;2.88;;;;;;;;;;5045701;28;20159;-67
2022/03/09 05:43:12;;;;;;;6.03;3.35;;;;;;;;;;5045329;28;20044;-66
2022/03/09 05:45:38;;;;;;;5.78;3.13;;;;;;;;;;5026105;28;20065;-67
2022/03/09 05:48:04;;;;;;;6.20;3.00;;;;;;;;;;5022632;28;20430;-67
2022/03/09 05:50:30;;;;;;;6.75;3.20;;;;;;;;;;5033796;28;20090;-67
2022/03/09 05:52:56;;;;;;;5.78;3.10;;;;;;;;;;5050599;28;20046;-67
2022/03/09 05:55:22;;;;;;;5.95;3.17;;;;;;;;;;5048667;28;20089;-66
2022/03/09 05:57:48;;;;;;;6.68;3.40;;;;;;;;;;5064246;28;20119;-67
2022/03/09 06:00:15;;;;;;;6.32;3.40;;;;;;;;;;5065639;28;20082;-67
2022/03/09 06:02:41;;;;;;;8.57;3.47;;;;;;;;;;5064530;28;20123;-67
2022/03/09 06:05:08;;;;;;;6.82;3.38;;;;;;;;;;5066172;28;20119;-67
2022/03/09 06:07:34;;;;;;;5.57;2.97;;;;;;;;;;5065288;28;20049;-67
2022/03/09 06:10:00;;;;;;;7.35;3.25;;;;;;;;;;5065220;28;20533;-67
2022/03/09 06:12:26;;;;;;;5.53;3.17;;;;;;;;;;5064344;28;20052;-67
2022/03/09 06:14:52;;;;;;;6.85;3.33;;;;;;;;;;5064925;28;20048;-67
2022/03/09 06:17:18;;;;;;;6.60;3.50;;;;;;;;;;5063693;28;20049;-67
2022/03/09 06:19:44;;;;;;;6.28;3.40;;;;;;;;;;5064654;28;20051;-66
2022/03/09 06:22:10;;;;;;;8.40;3.58;;;;;;;;;;5064585;28;20036;-67
2022/03/09 06:24:36;;;;;;;7.07;3.33;;;;;;;;;;5063939;28;20742;-67
2022/03/09 06:27:02;;;;;;;7.15;3.70;;;;;;;;;;5063759;28;20055;-66
2022/03/09 06:29:28;;;;;;;6.35;3.20;;;;;;;;;;5063846;28;20058;-66
2022/03/09 06:31:55;;;;;;;6.47;3.25;;;;;;;;;;5024039;28;20600;-66
2022/03/09 06:34:21;;;;;;;6.72;3.25;;;;;;;;;;5036288;28;20052;-67
2022/03/09 06:36:47;;;;;;;9.80;4.38;;;;;;;;;;5049955;28;20183;-67
2022/03/09 06:39:14;;;;;;;8.43;3.75;;;;;;;;;;5045418;28;20131;-67
2022/03/09 06:41:44;;;;;;;7.40;3.63;;;;;;;;;;5028205;28;20091;-67
2022/03/09 06:44:10;;;;;;;7.60;3.72;;;;;;;;;;5046733;28;20163;-67
2022/03/09 06:46:36;;;;;;;11.02;3.78;;;;;;;;;;5046108;28;20064;-66
2022/03/09 06:49:03;;;;;;;12.55;4.07;;;;;;;;;;5044674;28;20049;-67
2022/03/09 06:51:29;;;;;;;8.68;3.83;;;;;;;;;;5046771;28;20090;-66
2022/03/09 06:53:55;;;;;;;7.75;3.80;;;;;;;;;;5051377;28;20029;-67
2022/03/09 06:56:21;;;;;;;7.55;4.00;;;;;;;;;;5043185;28;20056;-67
2022/03/09 06:58:47;;;;;;;7.07;3.92;;;;;;;;;;5042015;28;20037;-67
2022/03/09 07:01:13;;;;;;;7.85;4.60;;;;;;;;;;5041669;28;20083;-67
2022/03/09 07:03:39;;;;;;;8.50;4.60;;;;;;;;;;5050390;28;20090;-67
2022/03/09 07:06:05;;;;;;;9.95;4.32;;;;;;;;;;5047339;28;20436;-67
2022/03/09 07:08:31;;;;;;;8.02;4.05;;;;;;;;;;5054767;28;20044;-67
2022/03/09 07:10:58;;;;;;;9.85;3.92;;;;;;;;;;5034607;28;20044;-67
2022/03/09 07:13:24;;;;;;;6.80;3.97;;;;;;;;;;5053226;28;20074;-67
2022/03/09 07:15:50;;;;;;;9.30;4.03;;;;;;;;;;5052799;28;20033;-67
2022/03/09 07:18:16;;;;;;;8.45;4.13;;;;;;;;;;5047271;28;20096;-67
2022/03/09 07:20:42;;;;;;;7.40;3.95;;;;;;;;;;5031198;28;20049;-67
2022/03/09 07:23:09;;;;;;;8.40;4.20;;;;;;;;;;5047778;28;20581;-67
2022/03/09 07:25:36;;;;;;;9.45;4.18;;;;;;;;;;5047312;28;20057;-67
2022/03/09 07:28:02;;;;;;;6.68;3.92;;;;;;;;;;5053246;28;20055;-67
2022/03/09 07:30:28;;;;;;;7.57;3.90;;;;;;;;;;5067417;28;20036;-67
2022/03/09 07:32:54;;;;;;;7.72;3.88;;;;;;;;;;5049392;28;20047;-67
2022/03/09 07:35:20;;;;;;;8.45;4.28;;;;;;;;;;5067635;28;20500;-67
2022/03/09 07:37:46;;;;;;;8.82;3.70;;;;;;;;;;5062534;28;20563;-67
2022/03/09 07:40:12;;;;;;;9.90;4.20;;;;;;;;;;5047697;28;20102;-67
2022/03/09 07:42:38;;;;;;;10.55;4.00;;;;;;;;;;5034270;28;20062;-67
2022/03/09 07:45:06;;;;;;;11.07;4.53;;;;;;;;;;5067508;28;20064;-67
2022/03/09 07:47:33;;;;;;;7.90;4.03;;;;;;;;;;5065606;28;20700;-67
2022/03/09 07:49:59;;;;;;;7.13;4.30;;;;;;;;;;5066642;28;20047;-67
2022/03/09 07:52:25;;;;;;;8.75;4.22;;;;;;;;;;5065114;28;20421;-67
2022/03/09 07:54:51;;;;;;;9.80;4.25;;;;;;;;;;5067086;28;20037;-68
2022/03/09 07:57:17;;;;;;;9.73;4.13;;;;;;;;;;5065410;28;20528;-67
2022/03/09 07:59:43;;;;;;;9.00;4.40;;;;;;;;;;5046919;28;20045;-67
2022/03/09 08:02:09;;;;;;;7.50;3.85;;;;;;;;;;5029119;28;20041;-67
2022/03/09 08:04:35;;;;;;;8.02;3.80;;;;;;;;;;5047565;28;20128;-66
2022/03/09 08:07:01;;;;;;;7.03;4.07;;;;;;;;;;5047779;28;20135;-67
2022/03/09 08:09:28;;;;;;;9.90;4.18;;;;;;;;;;5063788;28;20041;-67
2022/03/09 08:11:54;;;;;;;7.60;4.32;;;;;;;;;;5066456;28;20056;-67
2022/03/09 08:14:20;;;;;;;8.25;3.75;;;;;;;;;;5065957;28;20056;-67
2022/03/09 08:16:48;;;;;;;6.90;3.55;;;;;;;;;;5065992;28;20687;-67
2022/03/09 08:19:14;;;;;;;8.30;4.00;;;;;;;;;;5066168;28;20083;-67
2022/03/09 08:21:40;;;;;;;7.05;4.05;;;;;;;;;;5066148;28;20087;-67
2022/03/09 08:24:06;;;;;;;8.60;3.90;;;;;;;;;;5065930;28;20161;-67
2022/03/09 08:26:32;;;;;;;6.78;3.45;;;;;;;;;;5066820;28;20083;-67
2022/03/09 08:28:58;;;;;;;8.27;4.50;;;;;;;;;;5052235;28;20501;-67
2022/03/09 08:31:26;;;;;;;10.15;3.97;;;;;;;;;;5047121;28;20045;-67
2022/03/09 08:33:52;;;;;;;7.95;3.90;;;;;;;;;;5047124;28;20599;-67
2022/03/09 08:36:18;;;;;;;7.20;3.80;;;;;;;;;;5047677;28;20036;-67
2022/03/09 08:38:44;;;;;;;8.38;3.78;;;;;;;;;;5059098;28;20135;-67
2022/03/09 08:41:10;;;;;;;6.60;3.85;;;;;;;;;;5067313;28;20072;-66
2022/03/09 08:43:36;;;;;;;6.90;3.90;;;;;;;;;;5055466;28;20076;-66
2022/03/09 08:46:02;;;;;;;8.38;4.05;;;;;;;;;;5047062;28;20037;-66
2022/03/09 08:48:28;;;;;;;6.93;3.60;;;;;;;;;;5046686;28;20041;-67
2022/03/09 08:50:54;;;;;;;8.00;4.25;;;;;;;;;;5030387;28;20040;-67
2022/03/09 08:53:21;;;;;;;7.22;3.78;;;;;;;;;;5029905;28;20099;-67
2022/03/09 08:55:47;;;;;;;8.40;4.10;;;;;;;;;;5047489;28;20087;-68
2022/03/09 08:58:13;;;;;;;7.75;3.90;;;;;;;;;;5048588;28;20041;-67
2022/03/09 09:00:39;;;;;;;7.70;4.10;;;;;;;;;;5047061;28;20055;-67
2022/03/09 09:03:05;;;;;;;6.95;3.80;;;;;;;;;;5053088;28;20037;-67
2022/03/09 09:05:31;;;;;;;7.47;3.72;;;;;;;;;;5065850;28;20667;-67
2022/03/09 09:07:57;;;;;;;7.60;3.95;;;;;;;;;;5063615;28;20044;-67
2022/03/09 09:10:23;;;;;;;10.45;3.72;;;;;;;;;;5048115;28;20648;-67
2022/03/09 09:12:50;;;;;;;7.00;3.47;;;;;;;;;;5059788;28;20080;-67
2022/03/09 09:15:16;;;;;;;7.18;3.70;;;;;;;;;;5044539;28;20045;-67
2022/03/09 09:17:42;;;;;;;7.50;3.95;;;;;;;;;;5047830;28;20512;-67
2022/03/09 09:20:09;;;;;;;6.97;3.40;;;;;;;;;;5065056;28;20630;-67
2022/03/09 09:22:35;;;;;;;6.72;3.90;;;;;;;;;;5064033;28;20044;-67
2022/03/09 09:25:01;;;;;;;8.18;4.20;;;;;;;;;;5064836;28;20086;-67
2022/03/09 09:27:28;;;;;;;7.03;3.70;;;;;;;;;;5063393;28;20079;-68
2022/03/09 09:29:54;;;;;;;7.10;3.30;;;;;;;;;;5065093;28;20036;-67
2022/03/09 09:32:20;;;;;;;8.10;3.90;;;;;;;;;;5064163;28;20097;-67
2022/03/09 09:34:46;;;;;;;6.75;3.60;;;;;;;;;;5067149;28;20124;-67
2022/03/09 09:37:12;;;;;;;6.97;3.70;;;;;;;;;;5066533;28;20040;-67
2022/03/09 09:39:39;;;;;;;8.10;3.33;;;;;;;;;;5047238;28;20045;-67
2022/03/09 09:42:05;;;;;;;7.45;3.80;;;;;;;;;;5047177;28;20621;-67
2022/03/09 09:44:31;;;;;;;7.13;3.60;;;;;;;;;;5064015;28;20597;-68
2022/03/09 09:46:58;;;;;;;8.35;3.40;;;;;;;;;;5065039;28;20045;-67
2022/03/09 09:49:24;;;;;;;7.30;3.78;;;;;;;;;;5047251;28;20117;-67
2022/03/09 09:51:51;;;;;;;5.60;3.10;;;;;;;;;;5065974;28;20451;-67
2022/03/09 09:54:17;;;;;;;6.82;3.45;;;;;;;;;;5063386;28;20057;-67
2022/03/09 09:56:44;;;;;;;6.90;3.70;;;;;;;;;;5064280;28;20044;-67
2022/03/09 09:59:10;;;;;;;5.57;3.03;;;;;;;;;;5047158;28;20090;-67
2022/03/09 10:01:36;;;;;;;6.95;3.63;;;;;;;;;;5064495;28;20123;-67
2022/03/09 10:04:06;;;;;;;6.40;3.63;;;;;;;;;;5048485;28;20802;-67
2022/03/09 10:06:33;;;;;;;7.00;3.53;;;;;;;;;;5044260;28;20558;-67
2022/03/09 10:09:09;;;;;;;6.85;3.42;;;;;;;;;;5057388;28;20072;-67
2022/03/09 10:11:54;;;;;;;7.55;3.63;;;;;;;;;;5063992;28;20043;-67
2022/03/09 10:14:39;;;;;;;6.57;3.40;;;;;;;;;;5047246;28;20048;-67
2022/03/09 10:17:06;;;;;;;7.03;3.63;;;;;;;;;;5063588;28;20040;-67
2022/03/09 10:19:37;;;;;;;7.18;3.55;;;;;;;;;;5046615;28;20048;-67
2022/03/09 10:22:22;;;;;;;6.35;3.30;;;;;;;;;;5065886;28;20037;-67
2022/03/09 10:24:48;;;;;;;7.25;3.42;;;;;;;;;;5047983;28;20053;-67
2022/03/09 10:27:31;;;;;;;5.40;2.80;;;;;;;;;;5067530;28;20563;-67
2022/03/09 10:29:59;;;;;;;6.20;3.38;;;;;;;;;;5052028;28;20045;-67
2022/03/09 10:32:41;;;;;;;6.90;3.20;;;;;;;;;;5066612;28;20056;-67
2022/03/09 10:35:07;;;;;;;8.73;3.47;;;;;;;;;;5067776;28;20083;-67
2022/03/09 10:37:40;;;;;;;6.50;3.33;;;;;;;;;;5068005;28;20485;-67
2022/03/09 10:40:14;;;;;;;7.82;3.17;;;;;;;;;;5068251;28;20063;-68
2022/03/09 10:42:40;;;;;;;6.85;3.40;;;;;;;;;;5063115;28;20044;-68
2022/03/09 10:45:07;;;;;;;6.55;3.13;;;;;;;;;;5047399;28;20045;-67
2022/03/09 10:47:34;;;;;;;74.82;11.80;;;;;;;;;;5048344;28;20124;-68
2022/03/09 10:50:11;;;;;;;61.90;11.23;;;;;;;;;;5067009;28;20045;-68
2022/03/09 10:52:46;;;;;;;48.28;8.60;;;;;;;;;;5064402;28;20044;-68
2022/03/09 10:55:32;;;;;;;41.33;6.88;;;;;;;;;;5065909;28;20049;-68
2022/03/09 10:58:15;;;;;;;37.10;7.57;;;;;;;;;;5065730;28;20563;-68
2022/03/09 11:00:47;;;;;;;29.27;6.40;;;;;;;;;;5066822;28;20044;-68
2022/03/09 11:03:14;;;;;;;33.67;6.75;;;;;;;;;;5065071;28;20048;-68
2022/03/09 11:05:51;;;;;;;26.92;6.60;;;;;;;;;;5066139;28;20052;-68
2022/03/09 11:08:18;;;;;;;20.13;6.00;;;;;;;;;;5064464;28;20037;-69
2022/03/09 11:10:48;;;;;;;28.63;5.10;;;;;;;;;;5065779;28;20041;-68
2022/03/09 11:13:14;;;;;;;28.48;5.40;;;;;;;;;;5064977;28;20111;-68
2022/03/09 11:15:42;;;;;;;22.92;5.30;;;;;;;;;;5066703;28;20036;-67
2022/03/09 11:18:09;;;;;;;18.98;4.78;;;;;;;;;;5064201;28;20047;-67
2022/03/09 11:20:35;;;;;;;22.05;5.32;;;;;;;;;;5065988;28;20037;-68
2022/03/09 11:23:01;;;;;;;20.70;4.88;;;;;;;;;;5064195;28;20074;-68
2022/03/09 11:25:27;;;;;;;16.63;5.45;;;;;;;;;;5067034;28;20049;-67
2022/03/09 11:27:55;;;;;;;22.52;5.65;;;;;;;;;;5060313;28;20035;-67
2022/03/09 11:30:23;;;;;;;28.52;6.40;;;;;;;;;;5045591;28;20448;-68
2022/03/09 11:32:50;;;;;;;22.05;5.07;;;;;;;;;;5050119;28;20078;-68
2022/03/09 11:35:35;;;;;;;22.80;5.43;;;;;;;;;;5065960;28;20626;-67
2022/03/09 11:38:02;;;;;;;18.92;5.47;;;;;;;;;;5063613;28;20040;-67
2022/03/09 11:40:29;;;;;;;22.45;6.30;;;;;;;;;;5065360;28;20052;-68
2022/03/09 11:42:54;;;;;;;18.92;5.00;;;;;;;;;;5065231;28;20562;-67
2022/03/09 11:45:21;;;;;;;15.05;5.22;;;;;;;;;;5065228;28;20055;-67
2022/03/09 11:47:56;;;;;;;23.40;5.95;;;;;;;;;;5063697;28;20033;-67
2022/03/09 11:50:23;;;;;;;17.58;5.10;;;;;;;;;;5065629;28;20048;-67
2022/03/09 11:53:03;;;;;;;18.95;5.70;;;;;;;;;;5063710;28;20126;-67
2022/03/09 11:55:30;;;;;;;17.50;5.82;;;;;;;;;;5066738;28;20041;-68
2022/03/09 11:57:55;;;;;;;17.08;5.28;;;;;;;;;;5064179;28;20682;-67
2022/03/09 12:00:22;;;;;;;18.90;5.88;;;;;;;;;;5065311;28;20048;-67
2022/03/09 12:02:56;;;;;;;16.58;5.57;;;;;;;;;;5063553;28;20048;-67
2022/03/09 12:05:22;;;;;;;13.43;5.07;;;;;;;;;;5065922;28;20110;-67
2022/03/09 12:07:48;;;;;;;15.93;5.63;;;;;;;;;;5062934;28;20525;-67
2022/03/09 12:10:16;;;;;;;15.80;5.10;;;;;;;;;;5048501;28;20803;-67
2022/03/09 12:13:01;;;;;;;16.08;5.07;;;;;;;;;;5063662;28;20055;-67
2022/03/09 12:15:27;;;;;;;14.07;5.35;;;;;;;;;;5064726;28;20512;-67
2022/03/09 12:17:53;;;;;;;12.95;4.97;;;;;;;;;;5063838;28;20044;-68
2022/03/09 12:20:20;;;;;;;14.15;5.05;;;;;;;;;;5064687;28;20094;-67
2022/03/09 12:22:55;;;;;;;17.58;5.03;;;;;;;;;;5062808;28;20111;-67
2022/03/09 12:25:38;;;;;;;16.40;5.65;;;;;;;;;;5065620;28;20146;-67
2022/03/09 12:28:25;;;;;;;15.43;5.40;;;;;;;;;;5046460;28;20039;-67
2022/03/09 12:30:56;;;;;;;13.02;4.95;;;;;;;;;;5064099;28;20036;-67
2022/03/09 12:33:25;;;;;;;13.70;4.93;;;;;;;;;;5063777;28;20051;-67
2022/03/09 12:35:54;;;;;;;13.32;4.95;;;;;;;;;;5064751;28;20037;-67
2022/03/09 12:38:22;;;;;;;10.82;4.30;;;;;;;;;;5053968;28;20617;-68
2022/03/09 12:40:47;;;;;;;11.18;4.63;;;;;;;;;;5044222;28;20048;-67
2022/03/09 12:43:14;;;;;;;12.75;4.70;;;;;;;;;;5045083;28;20044;-67
2022/03/09 12:45:49;;;;;;;11.50;4.85;;;;;;;;;;5044595;28;20052;-67
2022/03/09 12:48:19;;;;;;;13.73;4.97;;;;;;;;;;5051553;28;20040;-67
2022/03/09 12:50:45;;;;;;;13.25;5.00;;;;;;;;;;5064803;28;20048;-67
2022/03/09 12:53:12;;;;;;;14.85;5.10;;;;;;;;;;5063444;28;20029;-67
2022/03/09 12:55:39;;;;;;;13.15;5.03;;;;;;;;;;5064099;28;20072;-67
2022/03/09 12:58:05;;;;;;;11.85;4.82;;;;;;;;;;5062431;28;20048;-67
2022/03/09 13:00:34;;;;;;;9.50;4.25;;;;;;;;;;5064131;28;20040;-67
2022/03/09 13:03:00;;;;;;;8.48;4.30;;;;;;;;;;5046277;28;20068;-67
2022/03/09 13:05:30;;;;;;;12.88;4.90;;;;;;;;;;5046552;28;20641;-67
2022/03/09 13:08:06;;;;;;;12.02;4.53;;;;;;;;;;5062979;28;20047;-67
2022/03/09 13:10:40;;;;;;;12.13;4.32;;;;;;;;;;5047103;28;20501;-67
2022/03/09 13:13:06;;;;;;;8.23;3.90;;;;;;;;;;5062658;28;20037;-67
2022/03/09 13:15:43;;;;;;;9.25;4.18;;;;;;;;;;5063598;28;20712;-67
2022/03/09 13:18:09;;;;;;;10.90;4.80;;;;;;;;;;5045349;28;20097;-68
2022/03/09 13:20:37;;;;;;;9.23;4.50;;;;;;;;;;5046826;28;20044;-67
2022/03/09 13:23:03;;;;;;;8.88;4.40;;;;;;;;;;5045394;28;20040;-67
2022/03/09 13:25:30;;;;;;;9.45;4.20;;;;;;;;;;5063334;28;20044;-67
2022/03/09 13:28:05;;;;;;;9.75;4.88;;;;;;;;;;5056806;28;20606;-68
2022/03/09 13:30:32;;;;;;;9.35;4.88;;;;;;;;;;5043234;28;20647;-68
2022/03/09 13:33:11;;;;;;;10.05;4.30;;;;;;;;;;5049269;28;20067;-67
2022/03/09 13:35:47;;;;;;;8.23;4.50;;;;;;;;;;5065044;28;20480;-67
2022/03/09 13:38:19;;;;;;;8.65;4.18;;;;;;;;;;5061795;28;20052;-67
2022/03/09 13:40:46;;;;;;;7.53;3.50;;;;;;;;;;5064479;28;20040;-67
2022/03/09 13:43:12;;;;;;;8.93;3.88;;;;;;;;;;5038436;28;20044;-67
2022/03/09 13:45:41;;;;;;;7.75;3.92;;;;;;;;;;5048061;28;20095;-68
2022/03/09 13:48:08;;;;;;;8.77;3.72;;;;;;;;;;5046825;28;20040;-67
2022/03/09 13:50:35;;;;;;;8.88;4.47;;;;;;;;;;5043565;28;20045;-67
2022/03/09 13:53:07;;;;;;;7.18;3.60;;;;;;;;;;5050075;28;20036;-67
2022/03/09 13:55:38;;;;;;;7.63;3.80;;;;;;;;;;5060225;28;20480;-66
2022/03/09 13:58:09;;;;;;;8.90;3.90;;;;;;;;;;5050428;28;20097;-67
2022/03/09 14:00:36;;;;;;;12.32;4.13;;;;;;;;;;5043012;28;20075;-68
2022/03/09 14:03:10;;;;;;;8.55;3.97;;;;;;;;;;5036663;28;20119;-68
2022/03/09 14:05:37;;;;;;;9.68;4.20;;;;;;;;;;5046603;28;20103;-68
2022/03/09 14:08:04;;;;;;;16.27;4.30;;;;;;;;;;5056338;28;20177;-67
2022/03/09 14:10:36;;;;;;;13.55;4.43;;;;;;;;;;5063125;28;20041;-67
2022/03/09 14:13:10;;;;;;;10.18;4.53;;;;;;;;;;5056003;28;20085;-68
2022/03/09 14:15:36;;;;;;;;;;;;;;;;;;5048102;28;20769;-68
2022/03/09 14:18:02;;;;;;;14.15;4.65;;;;;;;;;;5045722;28;19931;-68
2022/03/09 14:20:28;;;;;;;9.38;4.25;;;;;;;;;;5044776;28;20068;-67
2022/03/09 14:22:54;;;;;;;9.73;4.40;;;;;;;;;;5044635;28;20091;-66
2022/03/09 14:25:20;;;;;;;10.20;4.03;;;;;;;;;;5027187;28;21660;-66
2022/03/09 14:27:47;;;;;;;10.23;3.65;;;;;;;;;;5042781;28;20047;-65
2022/03/09 14:30:17;;;;;;;10.18;4.47;;;;;;;;;;5063380;28;20119;-66
2022/03/09 14:32:44;;;;;;;8.88;4.25;;;;;;;;;;5059882;28;20036;-66
2022/03/09 14:35:16;;;;;;;11.25;4.38;;;;;;;;;;5061713;28;20055;-66
2022/03/09 14:37:52;;;;;;;11.23;4.03;;;;;;;;;;5060320;28;20048;-66
2022/03/09 14:40:19;;;;;;;13.52;4.13;;;;;;;;;;5061767;28;20092;-65
2022/03/09 14:42:45;;;;;;;10.07;3.88;;;;;;;;;;5060047;28;20044;-66
2022/03/09 14:45:13;;;;;;;8.15;4.13;;;;;;;;;;5061217;28;20045;-66